KVEL/VEL METAR and TAF weather

Enter ICAO airport designator
Station Type Date Time Source
KVEL METAR 2019/10/21 01:53 UTC NOAA

KVEL 210153Z AUTO 00000KT 10SM CLR 05/M12 A3006 RMK AO2 SLP195 T00501117


Station Type Date Time Source
KVEL Decoded METAR 2019/10/21 01:53 UTC NOAA

VERNAL AIRPORT, UT, United States (KVEL) 40-26N 109-30W 1604M
Oct 20, 2019 - 09:53 PM EDT / 2019.10.21 0153 UTC
Wind: Calm:0
Visibility: 10 mile(s):0
Sky conditions: clear
Temperature: 41.0 F (5.0 C)
Dew Point: 10.9 F (-11.7 C)
Relative Humidity: 28%
Pressure (altimeter): 30.06 in. Hg (1017 hPa)
ob: KVEL 210153Z AUTO 00000KT 10SM CLR 05/M12 A3006 RMK AO2 SLP195 T00501117
cycle: 2

Station Type Date Time Source
KVEL TAF 2019/10/20 18:42 UTC NOAA

TAF KVEL 201741Z 2018/2118 13004KT P6SM BKN090
FM202000 34012G20KT P6SM FEW080 FEW250
FM202200 31012G20KT P6SM FEW090 FEW250
FM210100 28009KT P6SM FEW090 SCT250
FM211100 16005KT P6SM FEW090 SCT150

Example: see airport list